Sunrise, Wyoming
Current Conditions -  °F | °C
As of 11:35 PM on Thursday 30 Oct 2014 (Local Time) from KGUR Reporting Station
Clear Clear  
Wind Chill: 33°   Ceiling: Unl
Heat Index: 38°   Visibility: 10mi
Dew Point: 34°   Wind: 7mph
Humidity: 83%   Direction: 100°E
Pressure: 30.42"   Gusts: NA
Location:  42.3847°N, 104.796°W
Report Text: KGUR 310535Z AUTO 10006KT 10SM CLR 04/01 A3042 RMK AO2 T00360010 PWINO
Loading
Personal Weather Stations






























Interactive Weather Map
Tropical Storm Tracking
New forecast layout! Learn more

10-Day Weather Forecast

Advertisements
Track Severe Weather on mobile